createdAt,value
2018-02-14T00:02:21.123Z,5.50
2018-02-14T00:04:48.578Z,5.17
2018-02-14T00:07:16.789Z,5.40
2018-02-14T00:09:44.248Z,4.97
2018-02-14T00:12:11.713Z,5.27
2018-02-14T00:14:40.653Z,5.13
2018-02-14T00:17:08.105Z,5.57
2018-02-14T00:19:35.993Z,5.37
2018-02-14T00:22:03.861Z,5.00
2018-02-14T00:24:31.730Z,5.60
2018-02-14T00:26:59.189Z,5.30
2018-02-14T00:29:26.852Z,5.60
2018-02-14T00:31:54.304Z,5.30
2018-02-14T00:34:22.185Z,6.40
2018-02-14T00:36:49.636Z,5.57
2018-02-14T00:39:17.088Z,6.17
2018-02-14T00:41:44.553Z,5.97
2018-02-14T00:44:12.388Z,5.10
2018-02-14T00:46:40.423Z,5.50
2018-02-14T00:49:08.696Z,5.43
2018-02-14T00:51:36.140Z,5.47
2018-02-14T00:54:04.369Z,6.07
2018-02-14T00:56:31.822Z,5.93
2018-02-14T00:58:59.273Z,5.37
2018-02-14T01:01:27.286Z,5.90
2018-02-14T01:03:55.905Z,6.00
2018-02-14T01:06:24.179Z,6.20
2018-02-14T01:08:51.625Z,5.30
2018-02-14T01:11:19.078Z,6.23
2018-02-14T01:13:46.548Z,7.00
2018-02-14T01:16:14.006Z,5.93
2018-02-14T01:18:48.761Z,6.23
2018-02-14T01:21:16.208Z,6.37
2018-02-14T01:23:43.666Z,6.63
2018-02-14T01:26:11.135Z,6.60
2018-02-14T01:28:38.617Z,6.33
2018-02-14T01:31:06.038Z,6.73
2018-02-14T01:33:43.941Z,6.43
2018-02-14T01:36:11.383Z,5.97
2018-02-14T01:38:38.861Z,6.17
2018-02-14T01:41:06.317Z,7.23
2018-02-14T01:43:33.768Z,6.60
2018-02-14T01:46:01.993Z,6.67
2018-02-14T01:48:30.201Z,6.87
2018-02-14T01:50:57.661Z,6.93
2018-02-14T01:53:25.126Z,6.93
2018-02-14T01:55:52.577Z,7.07
2018-02-14T01:58:20.042Z,6.40
2018-02-14T02:00:47.954Z,6.50
2018-02-14T02:03:16.169Z,7.00
2018-02-14T02:05:43.622Z,7.30
2018-02-14T02:08:11.075Z,7.20
2018-02-14T02:10:39.229Z,7.73
2018-02-14T02:13:06.680Z,8.87
2018-02-14T02:15:34.670Z,7.27
2018-02-14T02:18:02.910Z,7.17
2018-02-14T02:20:35.957Z,6.93
2018-02-14T02:23:03.619Z,7.03
2018-02-14T02:25:31.873Z,7.47
2018-02-14T02:27:59.915Z,7.47
2018-02-14T02:30:28.151Z,7.53
2018-02-14T02:32:55.589Z,6.90
2018-02-14T02:35:23.043Z,7.13
2018-02-14T02:37:50.505Z,6.90
2018-02-14T02:40:29.801Z,7.20
2018-02-14T02:42:58.031Z,6.77
2018-02-14T02:45:26.041Z,6.73
2018-02-14T02:47:53.493Z,6.83
2018-02-14T02:50:20.966Z,7.17
2018-02-14T02:52:49.009Z,7.87
2018-02-14T02:55:17.679Z,7.10
2018-02-14T02:57:45.556Z,7.40
2018-02-14T03:00:14.233Z,6.93
2018-02-14T03:02:41.703Z,7.20
2018-02-14T03:05:09.918Z,7.67
2018-02-14T03:07:37.376Z,7.00
2018-02-14T03:10:04.824Z,7.87
2018-02-14T03:12:32.277Z,7.30
2018-02-14T03:14:59.732Z,7.00
2018-02-14T03:17:27.597Z,6.97
2018-02-14T03:19:55.758Z,7.50
2018-02-14T03:22:23.205Z,6.87
2018-02-14T03:24:50.785Z,7.83
2018-02-14T03:27:19.944Z,7.73
2018-02-14T03:29:48.173Z,8.87
2018-02-14T03:32:15.653Z,7.97
2018-02-14T03:34:43.592Z,7.93
2018-02-14T03:37:11.053Z,8.00
2018-02-14T03:39:39.229Z,7.93
2018-02-14T03:42:06.702Z,7.60
2018-02-14T03:44:34.164Z,7.27
2018-02-14T03:47:02.437Z,9.10
2018-02-14T03:49:29.897Z,8.07
2018-02-14T03:51:58.579Z,8.63
2018-02-14T03:54:26.478Z,9.20
2018-02-14T03:56:54.482Z,9.00
2018-02-14T03:59:21.931Z,8.57
2018-02-14T04:01:49.621Z,8.20
2018-02-14T04:04:17.073Z,9.13
2018-02-14T04:06:44.901Z,9.60
2018-02-14T04:09:12.345Z,9.20
2018-02-14T04:11:39.800Z,9.37
2018-02-14T04:14:08.029Z,8.60
2018-02-14T04:16:35.477Z,8.97
2018-02-14T04:19:02.935Z,9.10
2018-02-14T04:21:30.811Z,8.77
2018-02-14T04:23:58.244Z,9.73
2018-02-14T04:26:25.709Z,8.43
2018-02-14T04:28:53.730Z,8.63
2018-02-14T04:31:21.524Z,10.13
2018-02-14T04:33:48.982Z,9.27
2018-02-14T04:36:16.432Z,9.40
2018-02-14T04:38:43.895Z,11.10
2018-02-14T04:41:11.344Z,10.03
2018-02-14T04:43:38.805Z,9.87
2018-02-14T04:46:06.674Z,10.50
2018-02-14T04:48:34.649Z,10.03
2018-02-14T04:51:02.114Z,9.97
2018-02-14T04:53:30.140Z,10.47
2018-02-14T04:55:58.029Z,10.33
2018-02-14T04:58:26.022Z,10.37
2018-02-14T05:00:53.473Z,9.43
2018-02-14T05:03:20.928Z,9.87
2018-02-14T05:05:48.396Z,9.87
2018-02-14T05:08:15.848Z,10.10
2018-02-14T05:10:43.318Z,10.47
2018-02-14T05:13:10.774Z,10.93
2018-02-14T05:15:38.229Z,10.90
2018-02-14T05:18:05.686Z,11.37
2018-02-14T05:20:33.140Z,10.77
2018-02-14T05:23:01.029Z,12.50
2018-02-14T05:25:29.982Z,11.17
2018-02-14T05:27:58.174Z,11.53
2018-02-14T05:30:25.633Z,11.10
2018-02-14T05:32:53.084Z,10.43
2018-02-14T05:35:20.538Z,11.67
2018-02-14T05:37:47.989Z,10.60
2018-02-14T05:40:15.570Z,9.80
2018-02-14T05:42:44.907Z,11.73
2018-02-14T05:45:12.627Z,10.77
2018-02-14T05:47:40.076Z,10.60
2018-02-14T05:50:10.913Z,10.77
2018-02-14T05:52:38.966Z,11.10
2018-02-14T05:55:06.425Z,9.60
2018-02-14T05:57:34.153Z,10.17
2018-02-14T06:00:02.358Z,11.67
2018-02-14T06:02:30.257Z,10.20
2018-02-14T06:04:58.417Z,10.93
2018-02-14T06:07:25.860Z,11.53
2018-02-14T06:09:53.934Z,10.97
2018-02-14T06:12:21.404Z,11.60
2018-02-14T06:14:48.856Z,11.33
2018-02-14T06:17:16.308Z,12.37
2018-02-14T06:19:43.782Z,12.83
2018-02-14T06:22:11.997Z,12.77
2018-02-14T06:24:39.448Z,12.67
2018-02-14T06:27:06.909Z,11.53
2018-02-14T06:29:34.364Z,11.20
2018-02-14T06:32:01.830Z,11.90
2018-02-14T06:34:29.295Z,11.63
2018-02-14T06:36:57.286Z,12.27
2018-02-14T06:39:24.745Z,13.10
2018-02-14T06:41:52.601Z,16.13
2018-02-14T06:44:20.039Z,22.00
2018-02-14T06:46:47.493Z,21.53
2018-02-14T06:49:16.320Z,19.37
2018-02-14T06:51:43.779Z,17.57
2018-02-14T06:54:11.640Z,15.30
2018-02-14T06:56:39.101Z,22.50
2018-02-14T06:59:07.757Z,22.37
2018-02-14T07:01:35.209Z,29.50
2018-02-14T07:04:02.673Z,21.80
2018-02-14T07:06:32.580Z,27.53
2018-02-14T07:09:00.802Z,19.20
2018-02-14T07:11:29.022Z,16.17
2018-02-14T07:13:56.482Z,15.30
2018-02-14T07:16:24.494Z,13.73
2018-02-14T07:18:52.717Z,12.93
2018-02-14T07:21:20.484Z,13.37
2018-02-14T07:23:48.500Z,11.67
2018-02-14T07:26:16.717Z,11.60
2018-02-14T07:28:44.570Z,9.70
2018-02-14T07:31:12.518Z,9.93
2018-02-14T07:33:39.975Z,10.13
2018-02-14T07:36:08.737Z,10.57
2018-02-14T07:38:36.194Z,10.77
2018-02-14T07:41:03.652Z,11.80
2018-02-14T07:43:31.869Z,9.70
2018-02-14T07:45:59.345Z,10.63
2018-02-14T07:48:27.919Z,10.13
2018-02-14T07:50:55.364Z,10.83
2018-02-14T07:53:22.822Z,10.37
2018-02-14T07:55:50.288Z,10.03
2018-02-14T07:58:17.740Z,10.13
2018-02-14T08:00:45.763Z,11.23
2018-02-14T08:03:14.432Z,11.40
2018-02-14T08:05:42.474Z,11.23
2018-02-14T08:08:09.929Z,10.00
2018-02-14T08:10:37.392Z,10.00
2018-02-14T08:13:05.464Z,9.57
2018-02-14T08:15:33.465Z,9.83
2018-02-14T08:18:01.681Z,9.90
2018-02-14T08:20:29.140Z,10.33
2018-02-14T08:22:56.586Z,10.50
2018-02-14T08:25:24.034Z,9.97
2018-02-14T08:27:51.481Z,9.80
2018-02-14T08:30:18.934Z,10.30
2018-02-14T08:32:47.439Z,10.53
2018-02-14T08:35:15.277Z,10.50
2018-02-14T08:37:43.481Z,10.63
2018-02-14T08:40:10.942Z,10.70
2018-02-14T08:42:38.605Z,11.43
2018-02-14T08:45:06.058Z,11.77
2018-02-14T08:47:36.010Z,12.20
2018-02-14T08:50:03.455Z,12.23
2018-02-14T08:52:30.913Z,11.13
2018-02-14T08:54:58.376Z,10.60
2018-02-14T08:57:25.825Z,12.60
2018-02-14T08:59:53.413Z,12.63
2018-02-14T09:02:22.195Z,11.03
2018-02-14T09:04:49.648Z,11.23
2018-02-14T09:07:17.098Z,9.97
2018-02-14T09:09:44.545Z,12.27
2018-02-14T09:12:12.002Z,11.07
2018-02-14T09:14:39.462Z,10.20
2018-02-14T09:17:06.913Z,10.87
2018-02-14T09:19:34.456Z,11.40
2018-02-14T09:22:01.924Z,10.63
2018-02-14T09:24:29.585Z,10.63
2018-02-14T09:26:57.045Z,10.53
2018-02-14T09:29:24.505Z,10.37
2018-02-14T09:31:51.948Z,11.80
2018-02-14T09:34:19.418Z,10.83
2018-02-14T09:36:46.865Z,11.50
2018-02-14T09:39:14.325Z,11.07
2018-02-14T09:41:41.779Z,10.90
2018-02-14T09:44:09.249Z,11.03
2018-02-14T09:46:36.696Z,11.30
2018-02-14T09:49:04.168Z,10.77
2018-02-14T09:51:31.619Z,10.83
2018-02-14T09:53:59.081Z,9.87
2018-02-14T09:56:26.535Z,11.17
2018-02-14T09:58:55.177Z,11.07
2018-02-14T10:01:22.657Z,11.70
2018-02-14T10:03:50.501Z,10.57
2018-02-14T10:06:18.052Z,10.50
2018-02-14T10:08:45.505Z,9.53
2018-02-14T10:11:13.402Z,10.43
2018-02-14T10:13:40.908Z,9.80
2018-02-14T10:16:08.366Z,10.77
2018-02-14T10:18:35.822Z,11.10
2018-02-14T10:21:03.284Z,9.37
2018-02-14T10:23:30.753Z,10.10
2018-02-14T10:25:58.598Z,9.57
2018-02-14T10:28:26.808Z,10.03
2018-02-14T10:30:54.320Z,10.27
2018-02-14T10:33:22.545Z,10.03
2018-02-14T10:35:50.006Z,9.77
2018-02-14T10:38:17.464Z,10.07
2018-02-14T10:40:45.345Z,9.97
2018-02-14T10:43:12.817Z,10.00
2018-02-14T10:45:41.726Z,8.93
2018-02-14T10:48:10.022Z,9.33
2018-02-14T10:50:37.474Z,7.50
2018-02-14T10:53:04.928Z,9.00
2018-02-14T10:55:32.809Z,9.47
2018-02-14T10:58:01.258Z,8.83
2018-02-14T11:00:35.168Z,8.40
2018-02-14T11:03:09.118Z,8.70
2018-02-14T11:05:36.569Z,8.37
2018-02-14T11:08:04.790Z,8.67
2018-02-14T11:10:33.563Z,8.83
2018-02-14T11:13:01.038Z,8.27
2018-02-14T11:15:29.249Z,9.30
2018-02-14T11:17:57.133Z,9.00
2018-02-14T11:20:24.626Z,8.70
2018-02-14T11:22:53.176Z,9.30
2018-02-14T11:25:20.634Z,9.73
2018-02-14T11:30:22.069Z,9.07
2018-02-14T11:32:49.542Z,9.73
2018-02-14T11:35:17.325Z,9.20
2018-02-14T11:37:45.161Z,10.40
2018-02-14T11:40:12.609Z,9.70
2018-02-14T11:42:40.049Z,9.17
2018-02-14T11:45:08.098Z,9.77
2018-02-14T11:47:36.309Z,9.70
2018-02-14T11:50:04.334Z,9.87
2018-02-14T11:52:32.070Z,11.77
2018-02-14T11:54:59.904Z,9.73
2018-02-14T11:57:27.805Z,9.93
2018-02-14T11:59:55.260Z,10.90
2018-02-14T12:02:22.784Z,10.57
2018-02-14T12:04:50.250Z,10.80
2018-02-14T12:07:17.701Z,10.47
2018-02-14T12:09:45.161Z,10.47
2018-02-14T12:12:12.970Z,11.27
2018-02-14T12:14:40.418Z,10.43
2018-02-14T12:17:07.873Z,11.80
2018-02-14T12:19:35.338Z,11.17
2018-02-14T12:22:02.792Z,9.93
2018-02-14T12:24:30.244Z,10.90
2018-02-14T12:26:57.710Z,10.70
2018-02-14T12:29:25.163Z,10.90
2018-02-14T12:31:52.614Z,9.10
2018-02-14T12:34:21.086Z,9.17
2018-02-14T12:36:48.534Z,10.43
2018-02-14T12:39:16.415Z,10.27
2018-02-14T12:41:44.132Z,9.23
2018-02-14T12:44:11.594Z,8.97
2018-02-14T12:46:40.871Z,10.03
2018-02-14T12:49:08.321Z,8.77
2018-02-14T12:51:36.510Z,8.17
2018-02-14T12:54:03.958Z,9.23
2018-02-14T12:56:31.414Z,8.33
2018-02-14T12:58:59.383Z,7.60
2018-02-14T13:01:27.401Z,8.10
2018-02-14T13:03:54.861Z,7.87
2018-02-14T13:06:22.739Z,7.60
2018-02-14T13:08:50.180Z,7.33
2018-02-14T13:11:17.627Z,7.40
2018-02-14T13:13:45.102Z,7.53
2018-02-14T13:16:13.118Z,8.27
2018-02-14T13:18:40.569Z,7.30
2018-02-14T13:21:08.018Z,7.40
2018-02-14T13:23:35.481Z,7.95
2018-02-14T13:26:02.996Z,7.33
2018-02-14T13:28:30.432Z,7.70
2018-02-14T13:30:59.201Z,8.70
2018-02-14T13:33:26.661Z,8.27
2018-02-14T13:35:54.121Z,8.37
2018-02-14T13:38:22.089Z,8.20
2018-02-14T13:40:50.426Z,8.97
2018-02-14T13:43:17.841Z,7.87
2018-02-14T13:45:45.324Z,8.30
2018-02-14T13:48:13.545Z,8.13
2018-02-14T13:50:41.234Z,7.43
2018-02-14T13:53:08.693Z,7.93
2018-02-14T13:55:36.149Z,7.50
2018-02-14T13:58:03.601Z,7.93
2018-02-14T14:00:31.053Z,8.13
2018-02-14T14:02:58.625Z,8.00
2018-02-14T14:05:26.089Z,6.57
2018-02-14T14:07:53.546Z,6.80
2018-02-14T14:10:20.994Z,6.80
2018-02-14T14:12:48.899Z,5.93
2018-02-14T14:15:17.370Z,5.70
2018-02-14T14:17:45.576Z,6.23
2018-02-14T14:20:13.024Z,6.30
2018-02-14T14:22:40.470Z,5.73
2018-02-14T14:25:07.938Z,5.67
2018-02-14T14:27:35.606Z,5.60
2018-02-14T14:30:03.058Z,5.77
2018-02-14T14:35:06.677Z,4.70
2018-02-14T14:37:34.126Z,5.23
2018-02-14T14:40:01.573Z,4.63
2018-02-14T14:42:29.037Z,4.70
2018-02-14T14:44:56.476Z,5.10
2018-02-14T14:47:24.457Z,4.87
2018-02-14T14:49:51.925Z,4.10
2018-02-14T14:52:20.068Z,4.80
2018-02-14T14:54:48.833Z,4.60
2018-02-14T14:57:16.730Z,4.40
2018-02-14T14:59:44.177Z,5.10
2018-02-14T15:02:12.394Z,5.00
2018-02-14T15:04:40.058Z,4.20
2018-02-14T15:07:08.325Z,4.90
2018-02-14T15:09:36.283Z,5.47
2018-02-14T15:12:03.762Z,5.27
2018-02-14T15:14:31.211Z,5.30
2018-02-14T15:16:58.647Z,5.00
2018-02-14T15:19:26.168Z,5.50
2018-02-14T15:21:53.606Z,5.40
2018-02-14T15:24:21.053Z,4.83
2018-02-14T15:26:48.517Z,4.83
2018-02-14T15:29:15.957Z,4.53
2018-02-14T15:31:43.409Z,4.97
2018-02-14T15:34:10.860Z,4.93
2018-02-14T15:36:38.312Z,5.20
2018-02-14T15:39:05.775Z,4.50
2018-02-14T15:41:33.226Z,4.87
2018-02-14T15:44:01.134Z,4.67
2018-02-14T15:46:28.585Z,5.13
2018-02-14T15:48:56.016Z,5.37
2018-02-14T15:51:23.466Z,4.60
2018-02-14T15:53:51.349Z,4.80
2018-02-14T15:56:18.796Z,4.80
2018-02-14T15:58:46.241Z,4.73
2018-02-14T16:01:13.694Z,4.90
2018-02-14T16:03:41.365Z,5.63
2018-02-14T16:06:08.833Z,5.80
2018-02-14T16:08:36.904Z,5.80
2018-02-14T16:11:04.387Z,5.63
2018-02-14T16:13:32.620Z,5.70
2018-02-14T16:16:00.609Z,5.77
2018-02-14T16:18:28.055Z,5.83
2018-02-14T16:20:55.570Z,6.50
2018-02-14T16:23:23.008Z,6.07
2018-02-14T16:25:51.525Z,6.47
2018-02-14T16:28:19.380Z,6.03
2018-02-14T16:30:46.844Z,5.77
2018-02-14T16:33:14.709Z,6.00
2018-02-14T16:35:42.165Z,5.97
2018-02-14T16:38:09.618Z,5.47
2018-02-14T16:40:37.609Z,6.90
2018-02-14T16:43:11.606Z,7.60
2018-02-14T16:45:39.050Z,7.00
2018-02-14T16:48:07.230Z,5.70
2018-02-14T16:50:34.682Z,5.77
2018-02-14T16:53:02.565Z,5.57
2018-02-14T16:55:30.445Z,6.23
2018-02-14T16:57:58.164Z,5.83
2018-02-14T17:00:25.606Z,7.00
2018-02-14T17:02:54.217Z,7.17
2018-02-14T17:05:24.378Z,7.10
2018-02-14T17:07:51.818Z,6.17
2018-02-14T17:10:20.014Z,7.03
2018-02-14T17:12:47.469Z,5.97
2018-02-14T17:15:14.919Z,6.43
2018-02-14T17:17:42.413Z,7.10
2018-02-14T17:20:09.878Z,6.83
2018-02-14T17:22:37.351Z,7.47
2018-02-14T17:25:04.803Z,7.67
2018-02-14T17:27:32.821Z,7.40
2018-02-14T17:30:00.509Z,6.60
2018-02-14T17:32:30.498Z,7.27
2018-02-14T17:35:00.377Z,6.70
2018-02-14T17:37:28.244Z,7.20
2018-02-14T17:39:55.690Z,7.70
2018-02-14T17:42:23.174Z,7.80
2018-02-14T17:44:50.629Z,7.57
2018-02-14T17:47:18.082Z,7.80
2018-02-14T17:49:45.746Z,7.87
2018-02-14T17:52:13.684Z,7.80
2018-02-14T17:54:41.448Z,8.67
2018-02-14T17:57:08.913Z,8.83
2018-02-14T17:59:51.734Z,9.43
2018-02-14T18:02:19.737Z,8.97
2018-02-14T18:04:47.809Z,8.80
2018-02-14T18:07:15.292Z,8.50
2018-02-14T18:09:42.750Z,8.40
2018-02-14T18:12:10.206Z,7.53
2018-02-14T18:14:37.673Z,7.27
2018-02-14T18:17:05.810Z,8.00
2018-02-14T18:19:35.076Z,8.63
2018-02-14T18:22:02.608Z,8.47
2018-02-14T18:24:30.045Z,8.83
2018-02-14T18:26:57.500Z,8.93
2018-02-14T18:29:24.961Z,10.53
2018-02-14T18:31:52.415Z,8.70
2018-02-14T18:34:19.872Z,9.60
2018-02-14T18:36:47.333Z,10.17
2018-02-14T18:39:14.802Z,9.73
2018-02-14T18:41:42.253Z,9.07
2018-02-14T18:44:09.698Z,9.00
2018-02-14T18:46:37.709Z,9.60
2018-02-14T18:49:07.728Z,10.40
2018-02-14T18:51:35.913Z,9.90
2018-02-14T18:54:04.686Z,9.57
2018-02-14T18:56:32.153Z,11.10
2018-02-14T18:58:59.605Z,10.30
2018-02-14T19:01:27.526Z,10.07
2018-02-14T19:03:54.969Z,9.60
2018-02-14T19:06:24.153Z,10.33
2018-02-14T19:08:52.384Z,10.27
2018-02-14T19:11:20.185Z,9.87
2018-02-14T19:13:47.628Z,9.80
2018-02-14T19:16:16.486Z,9.97
2018-02-14T19:18:44.555Z,9.97
2018-02-14T19:21:12.006Z,10.73
2018-02-14T19:23:39.482Z,11.00
2018-02-14T19:26:08.098Z,11.17
2018-02-14T19:28:35.551Z,10.33
2018-02-14T19:31:03.022Z,10.87
2018-02-14T19:33:31.761Z,10.33
2018-02-14T19:35:59.670Z,9.83
2018-02-14T19:38:27.903Z,10.93
2018-02-14T19:41:01.921Z,10.30
2018-02-14T19:43:29.381Z,10.87
2018-02-14T19:45:56.853Z,10.63
2018-02-14T19:48:24.300Z,9.63
2018-02-14T19:50:51.825Z,10.53
2018-02-14T19:53:20.285Z,10.13
2018-02-14T19:55:47.754Z,11.00
2018-02-14T19:58:15.200Z,10.07
2018-02-14T20:00:42.673Z,9.63
2018-02-14T20:03:10.769Z,11.03
2018-02-14T20:05:38.219Z,10.50
2018-02-14T20:08:06.100Z,10.67
2018-02-14T20:10:33.552Z,11.13
2018-02-14T20:13:01.084Z,11.40
2018-02-14T20:15:28.540Z,11.20
2018-02-14T20:17:56.009Z,11.30
2018-02-14T20:20:24.030Z,11.03
2018-02-14T20:22:52.252Z,11.17
2018-02-14T20:25:19.704Z,11.00
2018-02-14T20:27:47.928Z,12.07
2018-02-14T20:30:16.652Z,11.27
2018-02-14T20:32:44.815Z,11.43
2018-02-14T20:35:12.268Z,11.57
2018-02-14T20:37:39.740Z,11.53
2018-02-14T20:40:07.205Z,11.17
2018-02-14T20:42:34.661Z,11.03
2018-02-14T20:45:02.657Z,12.53
2018-02-14T20:47:30.121Z,11.50
2018-02-14T20:49:57.584Z,12.40
2018-02-14T20:52:26.375Z,11.53
2018-02-14T20:54:54.616Z,11.30
2018-02-14T20:57:22.113Z,11.57
2018-02-14T20:59:50.445Z,12.90
2018-02-14T21:02:18.377Z,12.40
2018-02-14T21:04:45.829Z,12.63
2018-02-14T21:07:13.286Z,13.33
2018-02-14T21:09:40.753Z,12.17
2018-02-14T21:12:08.197Z,12.70
2018-02-14T21:14:35.673Z,12.47
2018-02-14T21:17:03.256Z,13.07
2018-02-14T21:19:30.709Z,13.30
2018-02-14T21:21:58.179Z,13.50
2018-02-14T21:24:25.636Z,13.77
2018-02-14T21:26:53.204Z,14.37
2018-02-14T21:29:21.224Z,13.30
2018-02-14T21:31:48.708Z,14.50
2018-02-14T21:34:16.718Z,13.63
2018-02-14T21:36:44.938Z,13.50
2018-02-14T21:39:12.470Z,13.83
2018-02-14T21:41:39.876Z,12.87
2018-02-14T21:44:07.349Z,13.53
2018-02-14T21:46:34.801Z,14.27
2018-02-14T21:49:02.769Z,14.97
2018-02-14T21:51:30.220Z,15.20
2018-02-14T21:53:58.384Z,13.47
2018-02-14T21:56:26.375Z,13.90
2018-02-14T21:58:54.112Z,13.03
2018-02-14T22:01:22.005Z,14.50
2018-02-14T22:03:50.236Z,14.20
2018-02-14T22:06:17.688Z,14.40
2018-02-14T22:08:45.185Z,15.03
2018-02-14T22:11:13.168Z,14.67
2018-02-14T22:13:41.413Z,14.07
2018-02-14T22:16:08.865Z,14.83
2018-02-14T22:18:36.330Z,15.40
2018-02-14T22:21:03.793Z,14.93
2018-02-14T22:23:31.278Z,14.67
2018-02-14T22:25:59.494Z,13.20
2018-02-14T22:28:26.942Z,14.93
2018-02-14T22:30:54.406Z,14.87
2018-02-14T22:33:22.653Z,15.97
2018-02-14T22:35:50.101Z,15.73
2018-02-14T22:38:17.588Z,15.00
2018-02-14T22:40:45.065Z,16.73
2018-02-14T22:43:12.513Z,17.00
2018-02-14T22:45:40.381Z,14.33
2018-02-14T22:48:07.852Z,14.93
2018-02-14T22:50:35.404Z,32.00
2018-02-14T22:53:02.885Z,45.37
2018-02-14T22:55:37.493Z,44.60
2018-02-14T22:58:04.970Z,33.40
2018-02-14T23:00:33.193Z,36.60
2018-02-14T23:03:00.649Z,31.90
2018-02-14T23:05:28.114Z,27.60
2018-02-14T23:07:55.565Z,20.33
2018-02-14T23:10:23.030Z,15.80
2018-02-14T23:12:50.490Z,15.43
2018-02-14T23:15:18.340Z,15.70
2018-02-14T23:17:45.802Z,16.40
2018-02-14T23:20:13.269Z,19.13
2018-02-14T23:22:41.146Z,30.97
2018-02-14T23:25:08.610Z,37.77
2018-02-14T23:27:36.473Z,27.60
2018-02-14T23:30:03.933Z,23.23
2018-02-14T23:32:31.389Z,24.23
2018-02-14T23:34:58.971Z,26.47
2018-02-14T23:37:27.579Z,21.97
2018-02-14T23:39:55.031Z,15.83
2018-02-14T23:42:23.009Z,16.87
2018-02-14T23:44:50.463Z,15.10
2018-02-14T23:47:20.517Z,16.53
2018-02-14T23:49:48.698Z,15.13
2018-02-14T23:52:16.269Z,16.10
2018-02-14T23:54:44.504Z,15.90
2018-02-14T23:57:11.968Z,16.83
2018-02-14T23:59:39.430Z,16.97
